Time;durP1;ratioP1;P1;durP2;ratioP2;P2;SDS_P1;SDS_P2;PMS_P1;PMS_P2;Temp;Humidity;BMP_temperature;BMP_pressure;BME280_temperature;BME280_humidity;BME280_pressure;Samples;Min_cycle;Max_cycle;Signal;HPM_P1;HPM_P2
2021/06/03 00:03:37;;;;;;;6.37;5.13;;;;;;;19.14;44.48;98221.41;8349147;28;20534;-65
2021/06/03 00:07:40;;;;;;;6.40;4.80;;;;;;;19.16;44.23;98217.84;8350090;28;20203;-65
2021/06/03 00:11:43;;;;;;;7.73;5.50;;;;;;;19.04;44.93;98227.47;8349782;28;20532;-65
2021/06/03 00:15:46;;;;;;;6.63;5.23;;;;;;;18.93;44.92;98236.16;8349618;28;20290;-65
2021/06/03 00:19:48;;;;;;;8.63;5.03;;;;;;;18.88;45.51;98238.28;8349545;28;20200;-65
2021/06/03 00:23:51;;;;;;;7.10;4.93;;;;;;;18.87;44.89;98239.25;8349872;28;20207;-65
2021/06/03 00:27:55;;;;;;;7.13;4.73;;;;;;;18.78;45.00;98240.72;8349682;28;20204;-65
2021/06/03 00:31:58;;;;;;;7.50;4.57;;;;;;;18.63;45.92;98242.66;8349631;28;20200;-65
2021/06/03 00:36:00;;;;;;;8.00;4.63;;;;;;;18.62;45.86;98243.63;8367331;28;20226;-64
2021/06/03 00:40:04;;;;;;;7.03;4.70;;;;;;;18.64;45.77;98246.97;8382434;28;20212;-64
2021/06/03 00:44:07;;;;;;;8.10;4.27;;;;;;;18.60;45.31;98245.53;8382558;28;20200;-64
2021/06/03 00:48:10;;;;;;;4.63;4.23;;;;;;;18.49;45.50;98248.94;8382448;28;20199;-65
2021/06/03 00:52:12;;;;;;;5.87;4.10;;;;;;;18.55;46.25;98242.41;8382322;28;20206;-65
2021/06/03 00:56:15;;;;;;;11.00;8.00;;;;;;;18.55;46.02;98243.22;8382124;28;20227;-65
2021/06/03 01:00:20;;;;;;;11.20;8.43;;;;;;;18.47;45.21;98248.19;8382261;28;20513;-65
2021/06/03 01:04:22;;;;;;;11.13;7.90;;;;;;;18.49;45.29;98246.31;8362374;28;20203;-65
2021/06/03 01:08:26;;;;;;;8.67;7.77;;;;;;;18.39;45.99;98247.94;8348982;28;20236;-62
2021/06/03 01:12:33;;;;;;;7.60;6.37;;;;;;;18.40;45.58;98248.75;8349068;28;20209;-62
2021/06/03 01:16:37;;;;;;;9.60;5.70;;;;;;;18.33;45.57;98254.44;8348921;28;20224;-62
2021/06/03 01:20:40;;;;;;;7.30;5.10;;;;;;;18.23;46.00;98261.28;8348913;28;20470;-62
2021/06/03 01:24:45;;;;;;;6.67;4.70;;;;;;;18.26;46.17;98261.06;8348745;28;20212;-62
2021/06/03 01:28:48;;;;;;;7.17;4.50;;;;;;;18.19;46.42;98256.38;8348998;28;20395;-62
2021/06/03 01:32:53;;;;;;;5.67;4.60;;;;;;;18.13;46.65;98261.09;8354047;28;20207;-62
2021/06/03 01:36:56;;;;;;;5.67;4.70;;;;;;;18.00;47.05;98260.28;8354876;28;20235;-66
2021/06/03 01:41:01;;;;;;;5.87;4.50;;;;;;;18.01;47.29;98269.84;8354397;28;20200;-63
2021/06/03 01:45:04;;;;;;;8.00;4.97;;;;;;;18.03;47.36;98259.22;8354406;28;20205;-63
2021/06/03 01:49:07;;;;;;;5.10;4.57;;;;;;;18.02;47.53;98261.00;8354309;28;20200;-62
2021/06/03 01:53:09;;;;;;;6.87;4.80;;;;;;;17.93;47.84;98264.25;8353871;28;20224;-63
2021/06/03 01:57:13;;;;;;;9.70;4.60;;;;;;;17.98;47.72;98259.56;8353726;28;20547;-63
2021/06/03 02:01:18;;;;;;;5.17;4.60;;;;;;;17.93;47.70;98265.13;8353579;28;20208;-63
2021/06/03 02:05:21;;;;;;;5.73;4.23;;;;;;;17.94;47.75;98273.81;8353512;28;20208;-63
2021/06/03 02:09:23;;;;;;;5.13;4.10;;;;;;;17.78;48.06;98274.84;8353646;28;20235;-63
2021/06/03 02:13:31;;;;;;;4.70;4.20;;;;;;;17.76;48.15;98273.25;8353558;28;20200;-63
2021/06/03 02:17:36;;;;;;;5.57;4.40;;;;;;;17.81;47.56;98279.03;8353073;28;20224;-63
2021/06/03 02:21:42;;;;;;;6.23;5.07;;;;;;;17.76;47.02;98279.34;8353432;28;20200;-63
2021/06/03 02:25:44;;;;;;;7.67;4.93;;;;;;;17.71;47.34;98278.00;8352955;28;20211;-63
2021/06/03 02:29:49;;;;;;;8.07;4.67;;;;;;;17.67;47.53;98290.47;8352879;28;20200;-63
2021/06/03 02:33:53;;;;;;;5.07;4.57;;;;;;;17.58;47.78;98289.28;8353012;28;20388;-63
2021/06/03 02:37:55;;;;;;;6.97;5.30;;;;;;;17.61;47.70;98290.88;8352420;28;20224;-63
2021/06/03 02:41:58;;;;;;;7.07;4.87;;;;;;;17.53;47.72;98295.78;8351398;28;20240;-63
2021/06/03 02:46:02;;;;;;;9.47;4.97;;;;;;;17.44;48.24;98292.03;8352600;28;20204;-62
2021/06/03 02:50:06;;;;;;;12.53;5.50;;;;;;;17.41;48.36;98292.22;8352072;28;20204;-63
2021/06/03 02:54:08;;;;;;;6.30;4.60;;;;;;;17.36;48.29;98294.28;8352043;28;20251;-63
2021/06/03 02:58:11;;;;;;;7.23;5.10;;;;;;;17.36;48.39;98291.69;8351838;28;20233;-63
2021/06/03 03:02:15;;;;;;;6.17;5.30;;;;;;;17.28;48.61;98300.03;8351862;28;20200;-63
2021/06/03 03:06:18;;;;;;;6.30;5.17;;;;;;;17.23;48.68;98298.66;8351704;28;20371;-63
2021/06/03 03:10:23;;;;;;;10.27;5.40;;;;;;;17.21;48.75;98301.41;8351347;28;20259;-63
2021/06/03 03:14:25;;;;;;;7.73;5.70;;;;;;;17.17;49.24;98305.16;8351544;28;20381;-62
2021/06/03 03:18:29;;;;;;;5.93;5.30;;;;;;;17.21;49.05;98306.66;8351311;28;20235;-63
2021/06/03 03:22:31;;;;;;;7.70;5.23;;;;;;;17.15;48.77;98305.28;8351196;28;20204;-62
2021/06/03 03:26:35;;;;;;;7.00;5.00;;;;;;;17.22;48.77;98313.53;8350912;28;20205;-63
2021/06/03 03:30:42;;;;;;;9.20;5.60;;;;;;;17.13;48.89;98309.72;8350956;28;20200;-63
2021/06/03 03:34:46;;;;;;;8.27;5.73;;;;;;;17.16;49.29;98316.56;8351043;28;20207;-62
2021/06/03 03:38:48;;;;;;;8.30;5.50;;;;;;;17.24;48.91;98319.50;8350781;28;20515;-62
2021/06/03 03:42:51;;;;;;;6.93;5.17;;;;;;;16.96;49.70;98317.84;8350662;28;20388;-63
2021/06/03 03:46:53;;;;;;;8.10;5.37;;;;;;;17.10;49.41;98322.22;8350632;28;20205;-63
2021/06/03 03:50:57;;;;;;;7.40;5.27;;;;;;;17.14;49.68;98326.31;8350611;28;20200;-62
2021/06/03 03:55:00;;;;;;;5.53;4.90;;;;;;;17.12;49.81;98330.78;8349828;28;20224;-62
2021/06/03 03:59:03;;;;;;;7.80;4.93;;;;;;;17.16;49.75;98327.88;8350224;28;20211;-62
2021/06/03 04:03:06;;;;;;;8.87;5.70;;;;;;;17.28;48.72;98338.47;8350112;28;20207;-62
2021/06/03 04:07:10;;;;;;;11.20;6.60;;;;;;;17.13;49.42;98329.84;8350160;28;20213;-62
2021/06/03 04:11:12;;;;;;;6.13;4.97;;;;;;;17.08;49.54;98334.56;8349877;28;20546;-62
2021/06/03 04:15:15;;;;;;;5.77;4.77;;;;;;;17.29;48.85;98346.22;8349884;28;20200;-62
2021/06/03 04:19:17;;;;;;;6.93;5.20;;;;;;;17.06;49.65;98345.13;8350001;28;20545;-62
2021/06/03 04:23:21;;;;;;;6.13;4.73;;;;;;;17.17;50.01;98344.41;8349802;28;20392;-65
2021/06/03 04:27:23;;;;;;;6.37;4.93;;;;;;;17.33;49.37;98349.50;8349788;28;20214;-63
2021/06/03 04:31:26;;;;;;;6.87;5.00;;;;;;;17.42;49.20;98354.13;8349728;28;20385;-63
2021/06/03 04:35:28;;;;;;;9.67;5.20;;;;;;;17.43;49.15;98357.56;8349697;28;20223;-63
2021/06/03 04:39:32;;;;;;;6.60;5.20;;;;;;;17.51;48.98;98363.13;8349515;28;20200;-63
2021/06/03 04:43:37;;;;;;;7.80;5.43;;;;;;;17.54;48.76;98365.56;8349549;28;20479;-63
2021/06/03 04:47:39;;;;;;;6.20;5.00;;;;;;;17.66;49.05;98364.72;8349554;28;20208;-63
2021/06/03 04:51:42;;;;;;;6.20;5.37;;;;;;;17.76;48.35;98372.78;8349349;28;20201;-63
2021/06/03 04:55:46;;;;;;;8.60;5.57;;;;;;;17.48;49.10;98377.28;8349176;28;20232;-63
2021/06/03 04:59:48;;;;;;;8.37;5.47;;;;;;;17.79;48.23;98386.53;8349320;28;20204;-63
2021/06/03 05:03:51;;;;;;;12.83;5.30;;;;;;;17.97;47.71;98381.88;8348988;28;20200;-63
2021/06/03 05:07:54;;;;;;;7.50;5.00;;;;;;;18.11;47.44;98385.34;8354772;28;20499;-64
2021/06/03 05:11:58;;;;;;;6.83;5.13;;;;;;;17.81;47.75;98388.22;8355288;28;20207;-63
2021/06/03 05:16:00;;;;;;;7.30;4.67;;;;;;;17.39;48.51;98377.88;8355011;28;20224;-63
2021/06/03 05:20:05;;;;;;;5.07;4.40;;;;;;;17.66;47.84;98387.47;8355082;28;20523;-63
2021/06/03 05:24:07;;;;;;;5.43;4.00;;;;;;;17.55;48.28;98382.91;8354915;28;20263;-63
2021/06/03 05:28:11;;;;;;;5.27;3.57;;;;;;;17.79;47.60;98385.69;8354701;28;20204;-63
2021/06/03 05:32:14;;;;;;;5.47;3.73;;;;;;;17.88;47.67;98394.75;8354684;28;20211;-63
2021/06/03 05:36:16;;;;;;;7.87;3.60;;;;;;;18.27;47.44;98388.56;8354501;28;20239;-63
2021/06/03 05:40:20;;;;;;;4.23;3.70;;;;;;;18.26;46.94;98396.53;8354403;28;20200;-63
2021/06/03 05:44:24;;;;;;;8.57;3.53;;;;;;;18.63;46.17;98399.22;8354259;28;20212;-63
2021/06/03 05:48:26;;;;;;;4.33;3.43;;;;;;;18.52;46.01;98410.44;8354109;28;20495;-63
2021/06/03 05:52:29;;;;;;;5.00;3.40;;;;;;;18.53;45.84;98418.22;8354136;28;20200;-63
2021/06/03 05:56:31;;;;;;;8.63;3.40;;;;;;;18.87;45.41;98415.03;8353904;28;20236;-63
2021/06/03 06:00:35;;;;;;;5.90;3.63;;;;;;;18.91;45.59;98416.50;8353870;28;20208;-64
2021/06/03 06:09:00;;;;;;;5.27;3.63;;;;;;;19.18;44.39;98418.91;8353221;28;20240;-63
2021/06/03 06:13:03;;;;;;;9.60;3.77;;;;;;;19.40;44.08;98422.59;8353500;28;20537;-63
2021/06/03 06:17:08;;;;;;;6.57;3.33;;;;;;;19.75;43.95;98430.53;8356219;28;20223;-64
2021/06/03 06:21:12;;;;;;;10.53;4.50;;;;;;;19.81;44.04;98434.50;8324948;28;20563;-64
2021/06/03 06:25:14;;;;;;;6.50;4.03;;;;;;;20.14;43.56;98438.16;8320211;28;20208;-63
2021/06/03 06:29:16;;;;;;;6.77;3.73;;;;;;;19.86;43.74;98438.47;8320090;28;20209;-63
2021/06/03 06:33:20;;;;;;;6.23;4.00;;;;;;;19.98;43.09;98431.44;8320041;28;20205;-64
2021/06/03 06:37:23;;;;;;;6.40;3.87;;;;;;;20.12;43.38;98438.25;8319532;28;20244;-63
2021/06/03 06:41:25;;;;;;;6.10;4.17;;;;;;;20.29;43.07;98435.19;8319934;28;20212;-63
2021/06/03 06:45:28;;;;;;;7.50;4.00;;;;;;;20.41;43.56;98436.06;8319495;28;20201;-63
2021/06/03 06:49:32;;;;;;;7.13;4.83;;;;;;;20.50;42.87;98443.22;8319472;28;20515;-64
2021/06/03 06:53:34;;;;;;;8.73;4.23;;;;;;;20.49;42.76;98440.72;8319382;28;20201;-63
2021/06/03 06:57:37;;;;;;;7.47;4.00;;;;;;;20.98;42.35;98442.16;8319094;28;20237;-63
2021/06/03 07:01:39;;;;;;;6.67;4.00;;;;;;;21.42;41.12;98448.28;8323145;28;20485;-63
2021/06/03 07:05:45;;;;;;;7.93;4.10;;;;;;;21.55;40.32;98448.16;8334787;28;20197;-64
2021/06/03 07:09:48;;;;;;;6.00;3.70;;;;;;;21.53;39.55;98452.69;8334000;28;20229;-64
2021/06/03 07:13:50;;;;;;;6.70;3.40;;;;;;;21.96;38.75;98461.50;8334187;28;20205;-63
2021/06/03 07:17:54;;;;;;;4.57;2.97;;;;;;;22.40;37.92;98465.69;8333968;28;20230;-64
2021/06/03 07:21:59;;;;;;;5.83;3.33;;;;;;;22.34;37.54;98460.94;8334111;28;20402;-64
2021/06/03 07:26:02;;;;;;;6.20;3.63;;;;;;;22.76;37.46;98460.84;8333947;28;20206;-64
2021/06/03 07:30:06;;;;;;;7.33;3.23;;;;;;;22.99;36.75;98450.06;8333084;28;20475;-64
2021/06/03 07:34:09;;;;;;;7.93;3.40;;;;;;;22.82;37.49;98444.47;8320600;28;20514;-64
2021/06/03 07:38:12;;;;;;;5.03;3.10;;;;;;;23.34;36.47;98449.63;8317894;28;20229;-64
2021/06/03 07:42:15;;;;;;;8.37;3.53;;;;;;;23.71;36.29;98451.59;8317881;28;20223;-64
2021/06/03 07:46:17;;;;;;;11.60;4.00;;;;;;;23.31;36.24;98449.06;8317896;28;20207;-64
2021/06/03 07:50:20;;;;;;;5.27;3.57;;;;;;;23.41;36.28;98447.25;8317696;28;20214;-64
2021/06/03 07:54:26;;;;;;;7.70;3.40;;;;;;;24.05;35.84;98437.97;8317523;28;20405;-64
2021/06/03 07:58:29;;;;;;;7.13;3.33;;;;;;;24.11;35.24;98447.13;8317432;28;20243;-64
2021/06/03 08:02:31;;;;;;;7.90;3.63;;;;;;;24.26;35.18;98445.72;8321521;28;20478;-64
2021/06/03 08:06:33;;;;;;;6.23;3.40;;;;;;;24.43;35.24;98451.22;8350152;28;20226;-64
2021/06/03 08:10:40;;;;;;;7.73;3.83;;;;;;;24.35;35.11;98444.00;8349651;28;20313;-64
2021/06/03 08:14:42;;;;;;;8.53;3.80;;;;;;;24.50;34.89;98452.31;8349837;28;20214;-64
2021/06/03 08:18:44;;;;;;;9.73;3.80;;;;;;;24.48;35.47;98448.97;8349767;28;20238;-64
2021/06/03 08:22:47;;;;;;;9.13;3.40;;;;;;;24.82;34.10;98453.75;8349689;28;20514;-67
2021/06/03 08:26:52;;;;;;;6.63;3.70;;;;;;;25.07;33.78;98446.94;8349505;28;20207;-66
2021/06/03 08:30:56;;;;;;;4.97;3.60;;;;;;;25.06;33.70;98451.41;8349805;28;20483;-66
2021/06/03 08:35:00;;;;;;;4.47;3.53;;;;;;;24.76;33.94;98452.53;8346345;28;20405;-67
2021/06/03 08:39:02;;;;;;;8.47;3.40;;;;;;;25.07;33.74;98445.09;8350990;28;20232;-66
2021/06/03 08:43:07;;;;;;;6.57;3.50;;;;;;;25.28;32.88;98446.69;8356149;28;20200;-66
2021/06/03 08:47:10;;;;;;;4.73;3.60;;;;;;;25.11;32.67;98453.59;8355853;28;20204;-67
2021/06/03 08:51:12;;;;;;;8.33;3.93;;;;;;;25.56;31.37;98452.75;8355929;28;20201;-66
2021/06/03 08:59:35;;;;;;;3.67;2.97;;;;;;;25.87;30.96;98453.19;8353997;28;21160;-66
2021/06/03 09:03:38;;;;;;;6.80;3.30;;;;;;;25.84;31.10;98450.03;8362245;28;20483;-66
2021/06/03 09:07:43;;;;;;;8.07;3.17;;;;;;;26.18;29.82;98458.13;8355211;28;20212;-67
2021/06/03 09:11:46;;;;;;;6.03;2.77;;;;;;;26.60;29.43;98452.09;8355183;28;20231;-67
2021/06/03 09:15:52;;;;;;;4.97;3.03;;;;;;;26.26;29.45;98454.69;8362065;28;20200;-67
2021/06/03 09:19:55;;;;;;;7.30;2.97;;;;;;;26.66;28.27;98462.06;8388382;28;20440;-67
2021/06/03 09:24:00;;;;;;;4.07;2.63;;;;;;;26.66;27.41;98456.75;8365053;28;20201;-67
2021/06/03 09:28:23;;;;;;;4.47;2.60;;;;;;;26.97;27.96;98463.38;8385797;28;20206;-67
2021/06/03 09:32:27;;;;;;;6.63;2.50;;;;;;;27.34;27.52;98441.75;8356213;28;20204;-67
2021/06/03 09:36:38;;;;;;;4.97;2.90;;;;;;;27.49;27.16;98448.09;8354478;28;20503;-67
2021/06/03 09:40:48;;;;;;;6.43;2.43;;;;;;;27.45;27.46;98437.94;8383908;28;20199;-67
2021/06/03 09:44:51;;;;;;;3.43;2.50;;;;;;;27.91;26.51;98448.13;8387486;28;20201;-65
2021/06/03 09:49:02;;;;;;;7.40;2.43;;;;;;;27.45;26.73;98440.59;8387416;28;20205;-65
2021/06/03 09:53:04;;;;;;;5.77;2.60;;;;;;;27.21;26.47;98446.69;8386563;28;20206;-65
2021/06/03 09:57:08;;;;;;;3.43;2.53;;;;;;;27.45;26.35;98432.59;8362764;28;20227;-65
2021/06/03 10:01:13;;;;;;;4.17;2.63;;;;;;;27.53;25.55;98437.09;8346933;28;20198;-65
2021/06/03 10:05:18;;;;;;;3.87;2.60;;;;;;;27.73;25.69;98430.47;8338068;28;20377;-65
2021/06/03 10:09:41;;;;;;;5.07;2.23;;;;;;;28.29;25.67;98427.94;8336197;28;20559;-65
2021/06/03 10:14:09;;;;;;;3.90;2.70;;;;;;;28.47;26.08;98427.75;8336102;28;20192;-65
2021/06/03 10:18:14;;;;;;;6.60;2.60;;;;;;;28.21;26.24;98431.44;8336157;28;20220;-65
2021/06/03 10:22:19;;;;;;;9.53;2.87;;;;;;;28.58;25.80;98432.72;8336050;28;20192;-65
2021/06/03 10:26:22;;;;;;;9.97;2.50;;;;;;;28.43;24.87;98432.56;8335273;28;20201;-65
2021/06/03 10:30:27;;;;;;;6.17;2.40;;;;;;;28.84;23.62;98424.47;8334525;28;20202;-65
2021/06/03 10:34:29;;;;;;;2.97;2.10;;;;;;;28.45;22.77;98430.56;8335718;28;20213;-65
2021/06/03 10:38:32;;;;;;;6.30;2.70;;;;;;;28.55;23.40;98430.41;8344834;28;20240;-64
2021/06/03 10:42:34;;;;;;;2.10;1.90;;;;;;;29.04;23.12;98419.53;8352451;28;20206;-65
2021/06/03 10:46:38;;;;;;;8.13;3.10;;;;;;;28.71;24.70;98413.53;8352514;28;20405;-67
2021/06/03 10:50:42;;;;;;;4.27;2.43;;;;;;;29.14;22.42;98424.66;8349214;28;20212;-67
2021/06/03 10:54:48;;;;;;;2.70;2.20;;;;;;;29.19;22.37;98424.16;8355025;28;20240;-66
2021/06/03 10:58:50;;;;;;;3.20;2.20;;;;;;;28.56;22.32;98418.75;8367259;28;20236;-66
2021/06/03 11:02:56;;;;;;;5.17;2.40;;;;;;;28.83;23.18;98416.66;8383365;28;20268;-67
2021/06/03 11:06:59;;;;;;;7.73;2.27;;;;;;;28.88;22.02;98414.25;8384810;28;20205;-67
2021/06/03 11:11:27;;;;;;;4.93;2.30;;;;;;;29.49;23.56;98405.59;8380353;28;20230;-67
2021/06/03 11:15:30;;;;;;;4.73;2.70;;;;;;;28.71;22.04;98404.69;8343323;28;20381;-66
2021/06/03 11:19:34;;;;;;;8.53;2.80;;;;;;;29.11;22.87;98418.81;8333996;28;20403;-67
2021/06/03 11:23:58;;;;;;;3.07;2.17;;;;;;;29.06;20.96;98416.69;8349110;28;20505;-66
2021/06/03 11:28:22;;;;;;;5.83;2.40;;;;;;;29.04;21.98;98405.38;8512451;27;20503;-67
2021/06/03 11:32:25;;;;;;;3.37;1.80;;;;;;;29.17;21.78;98396.84;8479196;28;20207;-68
2021/06/03 11:36:28;;;;;;;2.43;2.00;;;;;;;29.51;22.58;98400.91;8477977;28;20205;-67
2021/06/03 11:40:30;;;;;;;6.90;2.40;;;;;;;29.34;22.68;98400.19;8477636;28;20200;-67
2021/06/03 11:44:34;;;;;;;2.53;1.87;;;;;;;29.50;21.48;98386.75;8477627;28;20228;-67
2021/06/03 11:48:36;;;;;;;3.17;2.00;;;;;;;29.71;20.68;98390.59;8477411;28;20204;-67
2021/06/03 11:52:39;;;;;;;3.40;1.93;;;;;;;29.51;21.62;98390.25;8474835;28;20529;-65
2021/06/03 11:56:41;;;;;;;3.43;2.10;;;;;;;29.62;20.98;98389.81;8471962;28;20230;-66
2021/06/03 12:00:46;;;;;;;2.10;1.60;;;;;;;30.15;20.90;98382.66;8462940;28;20192;-65
2021/06/03 12:05:13;;;;;;;5.70;1.80;;;;;;;30.47;20.31;98394.03;8462796;28;20409;-65
2021/06/03 12:09:31;;;;;;;4.23;2.23;;;;;;;29.54;19.83;98388.03;8459021;28;20483;-65
2021/06/03 12:13:34;;;;;;;5.30;2.20;;;;;;;29.48;20.27;98380.75;8460853;28;20208;-66
2021/06/03 12:17:38;;;;;;;3.93;2.03;;;;;;;29.71;20.18;98375.41;8454200;28;20401;-66
2021/06/03 12:21:41;;;;;;;3.53;2.10;;;;;;;30.21;20.46;98365.94;8443535;28;20209;-66
2021/06/03 12:25:45;;;;;;;3.70;1.90;;;;;;;30.16;20.32;98371.00;8443299;28;20260;-67
2021/06/03 12:29:48;;;;;;;4.40;2.00;;;;;;;29.93;20.32;98360.38;8454587;28;20200;-65
2021/06/03 12:33:52;;;;;;;3.83;2.27;;;;;;;29.94;19.67;98359.34;8459253;28;20192;-65
2021/06/03 12:37:54;;;;;;;2.60;1.90;;;;;;;30.30;20.45;98363.16;8445799;28;20399;-65
2021/06/03 12:41:58;;;;;;;5.53;2.47;;;;;;;29.77;20.80;98356.03;8436467;28;20194;-65
2021/06/03 12:46:00;;;;;;;4.00;2.00;;;;;;;30.26;21.04;98346.66;8449680;28;20215;-66
2021/06/03 12:50:14;;;;;;;6.63;2.50;;;;;;;30.12;21.00;98352.81;8452630;28;20519;-66
2021/06/03 12:54:17;;;;;;;4.13;2.20;;;;;;;30.06;21.27;98346.38;8443964;28;20241;-66
2021/06/03 12:58:22;;;;;;;2.20;2.00;;;;;;;30.02;21.47;98348.63;8435911;28;20202;-66
2021/06/03 13:02:28;;;;;;;6.07;2.30;;;;;;;30.45;21.46;98347.16;8438215;28;20197;-66
2021/06/03 13:06:31;;;;;;;3.50;2.10;;;;;;;30.13;20.70;98341.16;8435627;28;20226;-67
2021/06/03 13:10:34;;;;;;;3.70;2.20;;;;;;;29.86;21.06;98345.28;8418623;28;20418;-67
2021/06/03 13:14:39;;;;;;;2.97;2.20;;;;;;;28.54;22.82;98338.19;8419457;28;20371;-65
2021/06/03 13:18:41;;;;;;;7.83;2.50;;;;;;;28.44;23.38;98338.38;8419398;28;20201;-66
2021/06/03 13:22:50;;;;;;;7.80;2.40;;;;;;;29.33;23.28;98334.53;8422714;28;20196;-66
2021/06/03 13:26:57;;;;;;;4.17;2.20;;;;;;;29.78;21.98;98338.19;8451427;28;20450;-66
2021/06/03 13:31:04;;;;;;;4.30;2.53;;;;;;;30.19;22.14;98335.06;8452191;28;20204;-66
2021/06/03 13:35:08;;;;;;;3.03;2.17;;;;;;;30.04;21.96;98327.03;8452421;28;20474;-66
2021/06/03 13:39:11;;;;;;;9.70;2.20;;;;;;;30.40;21.52;98329.81;8452256;28;20201;-66
2021/06/03 13:43:15;;;;;;;5.20;2.30;;;;;;;29.41;21.59;98329.94;8451920;28;20194;-66
2021/06/03 13:47:18;;;;;;;2.77;2.00;;;;;;;29.99;21.56;98324.13;8451859;28;20229;-66
2021/06/03 13:51:21;;;;;;;3.47;2.10;;;;;;;29.81;22.15;98325.28;8450880;28;20200;-66
2021/06/03 13:55:26;;;;;;;3.70;2.27;;;;;;;29.52;22.16;98322.53;8451507;28;20225;-66
2021/06/03 13:59:29;;;;;;;9.30;2.37;;;;;;;29.88;21.74;98316.56;8451638;28;20376;-66
2021/06/03 14:03:37;;;;;;;8.60;2.30;;;;;;;30.07;22.28;98304.50;8451217;28;20197;-66
2021/06/03 14:07:39;;;;;;;7.43;2.30;;;;;;;29.59;22.49;98310.16;8451058;28;20416;-66
2021/06/03 14:11:50;;;;;;;3.53;2.23;;;;;;;30.09;22.22;98300.63;8451005;28;20202;-66
2021/06/03 14:15:52;;;;;;;3.93;2.50;;;;;;;30.01;22.36;98317.56;8451062;28;20217;-66
2021/06/03 14:19:55;;;;;;;1.90;1.80;;;;;;;30.11;22.79;98303.13;8441742;28;20406;-66
2021/06/03 14:23:57;;;;;;;5.63;2.07;;;;;;;29.59;22.85;98294.13;8433196;28;20205;-66
2021/06/03 14:28:01;;;;;;;3.70;2.43;;;;;;;29.68;22.75;98294.88;8432216;28;20233;-66
2021/06/03 14:32:09;;;;;;;4.47;2.20;;;;;;;29.76;22.60;98287.66;8432855;28;20194;-66
2021/06/03 14:36:25;;;;;;;3.23;2.00;;;;;;;30.00;22.82;98283.03;8432897;28;20239;-67
2021/06/03 14:40:30;;;;;;;6.70;2.40;;;;;;;30.04;22.53;98275.50;8432856;28;20198;-67
2021/06/03 14:44:49;;;;;;;3.23;2.13;;;;;;;30.23;23.21;98274.91;8436182;28;20209;-66
2021/06/03 14:48:51;;;;;;;3.57;1.93;;;;;;;30.36;23.54;98277.78;8450102;28;20387;-66
2021/06/03 14:52:55;;;;;;;4.77;2.33;;;;;;;29.77;22.88;98277.78;8449828;28;20209;-66
2021/06/03 14:56:58;;;;;;;3.13;2.50;;;;;;;30.05;22.67;98263.81;8449540;28;20225;-66
2021/06/03 15:01:04;;;;;;;2.40;2.10;;;;;;;29.80;23.14;98258.75;8449694;28;20212;-66
2021/06/03 15:05:08;;;;;;;2.53;1.97;;;;;;;29.97;22.78;98267.41;8441979;28;20201;-67
2021/06/03 15:09:10;;;;;;;11.60;2.03;;;;;;;29.72;22.05;98266.81;8449641;28;20217;-66
2021/06/03 15:13:16;;;;;;;5.33;2.53;;;;;;;29.67;22.55;98255.88;8449532;28;20504;-66
2021/06/03 15:17:19;;;;;;;5.43;2.30;;;;;;;29.49;22.99;98261.53;8449531;28;20206;-66
2021/06/03 15:21:22;;;;;;;3.00;2.30;;;;;;;29.38;23.01;98257.50;8449170;28;20232;-67
2021/06/03 15:25:25;;;;;;;3.37;2.30;;;;;;;29.65;22.54;98252.56;8449451;28;20428;-66
2021/06/03 15:29:27;;;;;;;4.50;2.17;;;;;;;29.13;23.10;98256.84;8449352;28;20201;-66
2021/06/03 15:33:39;;;;;;;4.37;2.10;;;;;;;29.00;23.31;98258.28;8449127;28;20273;-67
2021/06/03 15:37:42;;;;;;;2.90;2.20;;;;;;;29.24;23.55;98257.28;8449033;28;20209;-67
2021/06/03 15:41:44;;;;;;;3.30;1.90;;;;;;;28.87;23.70;98262.56;8449174;28;20201;-67
2021/06/03 15:45:47;;;;;;;3.43;1.90;;;;;;;28.57;23.90;98257.06;8448981;28;20383;-68
2021/06/03 15:49:51;;;;;;;5.80;2.40;;;;;;;28.31;24.32;98244.03;8448976;28;20220;-68
2021/06/03 15:53:53;;;;;;;2.20;2.00;;;;;;;28.29;24.86;98241.53;8448948;28;20213;-68
2021/06/03 15:57:56;;;;;;;3.80;2.23;;;;;;;28.59;24.24;98253.22;8448959;28;20227;-66
2021/06/03 16:02:00;;;;;;;2.27;2.03;;;;;;;28.67;24.36;98247.00;8448833;28;20203;-66
2021/06/03 16:06:04;;;;;;;4.57;1.90;;;;;;;28.55;24.45;98249.25;8415180;28;20228;-66
2021/06/03 16:10:08;;;;;;;4.07;2.07;;;;;;;28.47;24.10;98244.78;8415205;28;20200;-66
2021/06/03 16:14:11;;;;;;;3.40;2.50;;;;;;;28.27;24.74;98247.06;8419794;28;20208;-66
2021/06/03 16:18:13;;;;;;;4.43;2.57;;;;;;;28.01;25.30;98247.34;8421403;28;20212;-66
2021/06/03 16:22:17;;;;;;;6.30;2.13;;;;;;;27.85;25.04;98252.66;8421250;28;20221;-67
2021/06/03 16:26:20;;;;;;;3.80;2.20;;;;;;;27.65;25.27;98247.75;8420538;28;20251;-66
2021/06/03 16:30:24;;;;;;;3.90;2.30;;;;;;;27.71;25.50;98240.91;8436782;28;20485;-67
2021/06/03 16:34:27;;;;;;;2.83;2.10;;;;;;;27.90;25.27;98239.72;8454223;28;20200;-67
2021/06/03 16:38:31;;;;;;;3.97;2.20;;;;;;;27.96;25.77;98246.19;8454209;28;20211;-67
2021/06/03 16:58:48;;;;;;;2.80;2.30;;;;;;;27.39;26.45;98242.63;8482251;27;20201;-65
2021/06/03 17:02:50;;;;;;;5.30;2.93;;;;;;;27.36;26.84;98232.34;8478398;28;20200;-66
2021/06/03 17:06:53;;;;;;;3.33;2.30;;;;;;;27.28;27.06;98238.50;8473277;27;20234;-65
2021/06/03 17:10:55;;;;;;;3.40;2.60;;;;;;;27.20;27.09;98230.50;8486005;28;20204;-68
2021/06/03 17:14:59;;;;;;;3.47;2.47;;;;;;;27.31;27.15;98240.00;8486903;28;20395;-68
2021/06/03 17:19:02;;;;;;;3.97;2.33;;;;;;;27.29;27.25;98234.03;8486602;28;20205;-68
2021/06/03 17:23:05;;;;;;;3.50;2.50;;;;;;;27.25;27.37;98232.69;8486292;28;20198;-68
2021/06/03 17:27:07;;;;;;;5.60;2.57;;;;;;;27.07;27.68;98239.00;8485991;28;20247;-67
2021/06/03 17:31:12;;;;;;;6.43;2.50;;;;;;;26.99;27.45;98238.16;8486266;28;20195;-69
2021/06/03 17:35:15;;;;;;;5.27;2.80;;;;;;;26.87;27.85;98248.28;8481215;28;20384;-66
2021/06/03 17:39:17;;;;;;;4.57;2.87;;;;;;;26.84;27.81;98245.94;8486147;28;20489;-78
2021/06/03 17:43:21;;;;;;;4.80;2.63;;;;;;;26.72;28.42;98258.72;8485760;28;20198;-67
2021/06/03 17:47:26;;;;;;;5.37;2.60;;;;;;;26.64;28.48;98258.72;8485600;28;20228;-69
2021/06/03 17:51:28;;;;;;;6.93;3.90;;;;;;;26.50;28.94;98257.47;8485558;28;20523;-71
2021/06/03 17:55:31;;;;;;;4.90;4.37;;;;;;;26.40;29.46;98262.94;8485411;28;20540;-71
2021/06/03 17:59:35;;;;;;;5.83;3.33;;;;;;;26.36;29.52;98266.09;8485177;28;20211;-71
2021/06/03 18:03:40;;;;;;;5.67;3.40;;;;;;;26.29;30.04;98257.91;8485264;28;20206;-69
2021/06/03 18:07:43;;;;;;;8.00;2.80;;;;;;;26.25;30.33;98272.50;8518977;27;20566;-71
2021/06/03 18:11:45;;;;;;;4.73;2.60;;;;;;;26.19;31.48;98268.66;8518667;27;20193;-71
2021/06/03 18:15:48;;;;;;;5.07;3.40;;;;;;;26.07;34.00;98284.06;8519197;27;20268;-71
2021/06/03 18:19:52;;;;;;;8.40;3.00;;;;;;;25.80;36.92;98271.78;8518667;27;20198;-71
2021/06/03 18:23:54;;;;;;;7.10;2.60;;;;;;;25.66;38.81;98280.31;8518763;27;20205;-71
2021/06/03 18:27:57;;;;;;;4.00;2.77;;;;;;;25.51;38.80;98277.38;8518403;27;20233;-70
2021/06/03 18:32:00;;;;;;;3.73;2.87;;;;;;;25.42;38.89;98276.53;8518392;27;20269;-70
2021/06/03 18:36:06;;;;;;;6.10;2.80;;;;;;;25.35;39.40;98286.06;8517593;27;20203;-70
2021/06/03 18:40:10;;;;;;;8.17;3.10;;;;;;;25.26;39.32;98287.81;8518287;27;20492;-69
2021/06/03 18:44:13;;;;;;;4.33;3.10;;;;;;;25.18;39.53;98293.03;8519644;27;20209;-70
2021/06/03 18:48:16;;;;;;;8.43;2.97;;;;;;;25.10;39.76;98285.00;8518210;27;20220;-69
2021/06/03 18:52:19;;;;;;;5.77;2.50;;;;;;;25.01;39.80;98292.03;8517829;27;20205;-70
2021/06/03 18:56:24;;;;;;;4.40;2.97;;;;;;;24.98;40.15;98292.38;8517805;27;20247;-69
2021/06/03 19:00:28;;;;;;;7.30;3.20;;;;;;;24.92;41.55;98293.81;8517515;27;20522;-70
2021/06/03 19:04:32;;;;;;;6.17;4.00;;;;;;;24.88;42.17;98297.72;8513045;27;20205;-70
2021/06/03 19:08:39;;;;;;;8.23;4.93;;;;;;;24.81;42.61;98293.16;8514676;27;20269;-71
2021/06/03 19:12:42;;;;;;;4.20;3.20;;;;;;;24.80;42.39;98294.16;8493727;27;20203;-68
2021/06/03 19:16:47;;;;;;;5.20;3.20;;;;;;;24.76;42.62;98302.41;8483147;28;20202;-69
2021/06/03 19:20:52;;;;;;;6.97;3.80;;;;;;;24.63;46.23;98298.47;8505644;27;20197;-68
2021/06/03 19:24:59;;;;;;;7.40;3.53;;;;;;;24.58;44.96;98298.91;8516835;27;20229;-68
2021/06/03 19:29:04;;;;;;;5.57;3.43;;;;;;;24.46;45.13;98303.53;8516984;28;20220;-68
2021/06/03 19:33:07;;;;;;;12.50;3.77;;;;;;;24.43;45.11;98316.22;8517359;28;20197;-69
2021/06/03 19:37:09;;;;;;;5.73;3.37;;;;;;;24.40;44.14;98306.78;8517162;28;20207;-69